Garner, Arkansas
Current Conditions -  °F | °C
As of 5:56 PM on Sunday 23 Nov 2014 (Local Time) from KSRC Reporting Station
Overcast Overcast  
Wind Chill: 60°   Ceiling: 600
Heat Index: 60°   Visibility: 10mi
Dew Point: 59°   Wind: 8mph
Humidity: 96%   Direction: 200°SSW
Pressure: 29.4"   Gusts: NA
Location:  35.14°N, 91.79°W
Report Text: KSRC 232356Z AUTO 20007KT 10SM OVC006 16/15 A2940 RMK AO2 SLP960 60008 T01560150 10161 20150 53010 TSNO
Loading
Personal Weather Stations






























Interactive Weather Map New forecast layout! Learn more

10-Day Weather Forecast

Advertisements
Track Severe Weather on mobile